Hovedside
METAR-TAF:

METAR-TAF

Lufthavner :

Nadi, Fiji

breddegrad: 17-45S, lengdegrad: 177-27E, høyde over havet: 13 m

Gjeldene værobservasjon

Denne rapporten ble laget for 49 minutter siden, klokken 18:00 UTC
Vind 5 kt fra Øst-sørøst
Temperatur 21°C
Luftfuktighet 88%
Trykk 1010 hPa
Sikt 10 km eller mer
Få skyer i en høyde av 3000 ft

METAR: NFFN 191800Z 12005KT 9999 FEW030 21/19 Q1010 NOSIG

Tid: 07:49 (18:49 UTC)

Varsel

Denne rapporten ble laget for 1 time og 48 minutter siden, klokken 17:01 UTC
Varsel gyldig fra 19. klokken 18 UTC til 20. klokken 18 UTC
Vind 6 kt fra Sørøst
Sikt 10 km eller mer
Spredte skyer i en høyde av 2800 ft
Blir
fra 19. klokken 22 UTC til 19. klokken 24 UTC
Vind 10 kt fra Vest
Blir
fra 20. klokken 04 UTC til 20. klokken 06 UTC
Vind 5 kt fra Øst-sørøst

TAF: NFFN 191701Z 1918/2018 14006KT 9999 SCT028 BECMG 1922/1924 26010KT BECMG 2004/2006 12005KT

Værobservasjoner og værvarsel for over 4000 flyplasser (METAR- og TAF-rapporter).

Tilgjengelige stasjoner er representert av de røde og gule prikkene på kartet.

Hold musepekeren over prikken for å se navnet på stasjonen.

Klikk så for å se værobservasjoner og -varsler.

For å forandre kartet kan du klikke på den grønne knappen med svart kryss for å zoome inn, på den grønne knappen med strek for å zoome ut, eller på de grønne pilene for å se tilstøtende kart.


METAR-TAF: